createdAt,value
2022-09-26T00:01:27.472Z,99019.75
2022-09-26T00:03:58.169Z,99028.41
2022-09-26T00:06:26.187Z,98946.09
2022-09-26T00:08:54.308Z,99007.63
2022-09-26T00:11:24.637Z,99028.38
2022-09-26T00:13:54.183Z,98932.22
2022-09-26T00:16:21.970Z,99027.53
2022-09-26T00:18:50.818Z,99024.03
2022-09-26T00:21:18.565Z,98926.13
2022-09-26T00:23:46.538Z,99032.72
2022-09-26T00:26:15.499Z,99029.22
2022-09-26T00:28:42.822Z,99027.50
2022-09-26T00:31:15.114Z,99036.13
2022-09-26T00:33:43.353Z,99031.81
2022-09-26T00:36:11.033Z,98980.72
2022-09-26T00:38:38.148Z,98919.25
2022-09-26T00:41:06.817Z,98949.56
2022-09-26T00:43:55.663Z,99028.38
2022-09-26T00:46:34.869Z,99025.84
2022-09-26T00:49:22.918Z,99039.66
2022-09-26T00:52:00.057Z,99043.94
2022-09-26T00:54:28.763Z,99043.13
2022-09-26T00:57:00.135Z,99047.38
2022-09-26T00:59:43.759Z,99009.19
2022-09-26T01:02:11.961Z,99023.06
2022-09-26T01:04:41.639Z,99049.06
2022-09-26T01:07:17.364Z,99056.88
2022-09-26T01:09:45.149Z,99047.31
2022-09-26T01:12:12.953Z,99050.81
2022-09-26T01:14:41.872Z,99014.41
2022-09-26T01:17:11.116Z,99031.72
2022-09-26T01:19:47.440Z,99043.94
2022-09-26T01:22:48.817Z,99050.03
2022-09-26T01:25:35.140Z,99035.34
2022-09-26T01:28:35.827Z,98970.31
2022-09-26T01:31:21.607Z,99048.34
2022-09-26T01:34:11.579Z,98931.31
2022-09-26T01:36:55.546Z,99054.31
2022-09-26T01:39:46.742Z,99046.53
2022-09-26T01:42:22.654Z,99056.88
2022-09-26T01:44:53.720Z,99015.28
2022-09-26T01:47:57.013Z,99055.22
2022-09-26T01:50:35.106Z,99051.72
2022-09-26T01:53:06.535Z,99058.63
2022-09-26T01:55:41.199Z,99053.44
2022-09-26T01:58:17.331Z,99063.00
2022-09-26T02:00:49.115Z,99009.22
2022-09-26T02:03:27.498Z,99067.34
2022-09-26T02:06:04.269Z,99068.19
2022-09-26T02:08:38.139Z,99056.91
2022-09-26T02:11:10.959Z,99058.66
2022-09-26T02:13:47.591Z,99038.72
2022-09-26T02:16:40.701Z,99069.97
2022-09-26T02:19:22.222Z,99063.84
2022-09-26T02:21:49.432Z,99053.44
2022-09-26T02:24:18.218Z,99070.81
2022-09-26T02:26:45.382Z,99072.53
2022-09-26T02:29:14.279Z,99062.97
2022-09-26T02:31:51.725Z,98997.06
2022-09-26T02:34:19.434Z,99060.31
2022-09-26T02:36:46.587Z,99080.28
2022-09-26T02:39:14.060Z,99081.97
2022-09-26T02:42:21.859Z,99088.06
2022-09-26T02:45:26.644Z,99078.56
2022-09-26T02:48:18.238Z,99092.38
2022-09-26T02:51:12.924Z,99092.38
2022-09-26T02:53:45.969Z,99088.88
2022-09-26T02:56:43.261Z,99070.69
2022-09-26T02:59:21.787Z,99087.13
2022-09-26T03:02:11.978Z,99075.78
2022-09-26T03:04:55.197Z,99092.28
2022-09-26T03:07:48.361Z,99068.94
2022-09-26T03:10:17.032Z,99093.16
2022-09-26T03:12:45.439Z,99092.28
2022-09-26T03:15:14.490Z,99087.09
2022-09-26T03:17:47.622Z,99071.47
2022-09-26T03:20:21.706Z,99084.47
2022-09-26T03:22:51.543Z,98975.34
2022-09-26T03:25:23.033Z,99094.06
2022-09-26T03:27:58.754Z,99087.16
2022-09-26T03:30:25.867Z,98996.94
2022-09-26T03:33:13.941Z,99077.50
2022-09-26T03:35:41.066Z,99101.78
2022-09-26T03:38:12.386Z,99101.75
2022-09-26T03:40:46.744Z,99075.69
2022-09-26T03:43:32.489Z,99129.41
2022-09-26T03:46:05.517Z,99112.16
2022-09-26T03:48:34.321Z,99105.22
2022-09-26T03:51:08.012Z,99110.44
2022-09-26T03:53:37.533Z,99122.53
2022-09-26T03:56:10.413Z,99046.31
2022-09-26T03:58:37.895Z,99114.84
2022-09-26T04:01:23.628Z,99098.38
2022-09-26T04:03:51.474Z,99071.56
2022-09-26T04:06:20.427Z,99107.97
2022-09-26T04:08:50.276Z,99118.34
2022-09-26T04:11:23.139Z,99128.69
2022-09-26T04:13:53.349Z,99090.47
2022-09-26T04:16:24.385Z,99118.25
2022-09-26T04:19:04.993Z,99123.44
2022-09-26T04:21:34.508Z,99125.16
2022-09-26T04:24:02.799Z,99123.41
2022-09-26T04:26:29.850Z,99118.25
2022-09-26T04:28:58.121Z,99076.59
2022-09-26T04:31:45.293Z,99010.72
2022-09-26T04:34:16.581Z,99105.22
2022-09-26T04:36:43.784Z,99133.91
2022-09-26T04:39:11.678Z,99141.66
2022-09-26T04:41:39.539Z,99113.06
2022-09-26T04:44:06.720Z,99136.44
2022-09-26T04:46:34.043Z,99138.16
2022-09-26T04:49:02.056Z,99119.94
2022-09-26T04:51:33.101Z,99135.59
2022-09-26T04:54:00.594Z,99114.81
2022-09-26T04:56:29.959Z,99129.59
2022-09-26T04:58:58.623Z,99120.84
2022-09-26T05:01:31.124Z,99113.09
2022-09-26T05:04:11.045Z,99139.97
2022-09-26T05:06:39.341Z,99120.91
2022-09-26T05:09:10.029Z,99120.94
2022-09-26T05:11:47.833Z,99134.81
2022-09-26T05:14:15.191Z,99106.16
2022-09-26T05:16:42.463Z,99098.38
2022-09-26T05:19:13.470Z,99150.41
2022-09-26T05:21:51.734Z,99156.53
2022-09-26T05:24:37.630Z,99114.84
2022-09-26T05:27:07.537Z,99141.78
2022-09-26T05:29:35.120Z,99149.63
2022-09-26T05:32:05.043Z,99148.69
2022-09-26T05:34:36.877Z,99148.69
2022-09-26T05:37:05.374Z,99137.41
2022-09-26T05:39:51.547Z,99158.28
2022-09-26T05:42:19.744Z,99150.41
2022-09-26T05:44:47.270Z,99082.75
2022-09-26T05:47:14.373Z,99148.69
2022-09-26T05:49:41.589Z,99124.41
2022-09-26T05:52:12.284Z,99147.03
2022-09-26T05:54:39.253Z,99172.16
2022-09-26T05:57:26.225Z,99123.56
2022-09-26T05:59:55.260Z,99149.63
2022-09-26T06:02:25.548Z,99118.38
2022-09-26T06:05:04.132Z,99140.91
2022-09-26T06:07:37.164Z,99147.78
2022-09-26T06:10:07.510Z,99123.50
2022-09-26T06:12:47.581Z,99184.28
2022-09-26T06:15:17.511Z,99184.28
2022-09-26T06:17:44.904Z,99185.19
2022-09-26T06:20:13.224Z,99075.88
2022-09-26T06:22:43.966Z,99167.84
2022-09-26T06:25:12.502Z,99187.78
2022-09-26T06:27:40.303Z,99179.09
2022-09-26T06:30:11.776Z,99183.47
2022-09-26T06:32:39.304Z,99183.50
2022-09-26T06:35:33.324Z,99193.06
2022-09-26T06:38:10.003Z,99154.00
2022-09-26T06:40:37.427Z,99093.28
2022-09-26T06:43:05.565Z,99196.53
2022-09-26T06:45:51.173Z,99188.75
2022-09-26T06:48:28.944Z,99188.72
2022-09-26T06:51:01.616Z,99197.44
2022-09-26T06:53:31.517Z,99185.28
2022-09-26T06:55:59.946Z,99203.50
2022-09-26T06:58:28.084Z,99198.34
2022-09-26T07:01:09.655Z,99185.34
2022-09-26T07:03:45.628Z,99187.97
2022-09-26T07:06:31.806Z,99194.94
2022-09-26T07:09:05.533Z,99189.75
2022-09-26T07:12:12.901Z,99209.72
2022-09-26T07:14:34.250Z,99194.06
2022-09-26T07:17:13.944Z,99165.41
2022-09-26T07:20:01.258Z,99200.13
2022-09-26T07:23:05.994Z,99197.53
2022-09-26T07:25:33.712Z,99148.97
2022-09-26T07:28:02.354Z,99210.53
2022-09-26T07:30:40.403Z,99233.09
2022-09-26T07:33:13.837Z,99206.19
2022-09-26T07:35:48.344Z,99239.13
2022-09-26T07:38:16.085Z,99214.84
2022-09-26T07:40:44.046Z,99236.56
2022-09-26T07:43:42.805Z,99210.53
2022-09-26T07:46:16.800Z,99130.72
2022-09-26T07:49:06.207Z,99220.09
2022-09-26T07:51:56.062Z,99253.91
2022-09-26T07:54:28.320Z,99251.31
2022-09-26T07:57:14.474Z,99244.41
2022-09-26T07:59:59.838Z,99212.28
2022-09-26T08:02:48.851Z,99173.25
2022-09-26T08:05:21.233Z,99221.00
2022-09-26T08:07:49.651Z,99253.13
2022-09-26T08:10:36.531Z,99254.88
2022-09-26T08:13:35.822Z,99228.00
2022-09-26T08:16:08.521Z,99166.41
2022-09-26T08:18:40.705Z,99247.94
2022-09-26T08:21:08.238Z,99251.44
2022-09-26T08:23:35.734Z,99255.81
2022-09-26T08:26:41.870Z,99212.41
2022-09-26T08:29:18.728Z,99237.56
2022-09-26T08:31:49.177Z,99235.88
2022-09-26T08:34:17.672Z,99256.69
2022-09-26T08:36:54.328Z,99271.41
2022-09-26T08:39:38.151Z,99250.63
2022-09-26T08:42:36.465Z,99265.38
2022-09-26T08:46:10.243Z,99275.75
2022-09-26T08:48:58.683Z,99251.50
2022-09-26T08:51:39.876Z,99267.97
2022-09-26T08:54:22.037Z,99239.34
2022-09-26T08:56:57.985Z,99291.38
2022-09-26T08:59:34.658Z,99287.06
2022-09-26T09:02:05.233Z,99290.53
2022-09-26T09:05:03.238Z,99289.66
2022-09-26T09:07:31.720Z,99109.25
2022-09-26T09:10:03.851Z,99297.44
2022-09-26T09:13:25.917Z,99204.63
2022-09-26T09:16:06.075Z,99303.50
2022-09-26T09:19:09.530Z,99180.31
2022-09-26T09:22:17.922Z,99323.44
2022-09-26T09:25:03.564Z,99303.44
2022-09-26T09:27:54.219Z,99325.16
2022-09-26T09:30:36.121Z,99326.84
2022-09-26T09:33:39.704Z,99327.75
2022-09-26T09:36:50.892Z,99333.78
2022-09-26T09:39:44.858Z,99216.66
2022-09-26T09:42:37.110Z,99322.56
2022-09-26T09:45:17.456Z,99315.63
2022-09-26T09:47:44.913Z,99261.75
2022-09-26T09:50:22.098Z,99323.44
2022-09-26T09:52:51.886Z,99330.41
2022-09-26T09:55:33.002Z,99319.97
2022-09-26T09:58:18.542Z,99333.00
2022-09-26T10:00:56.572Z,99254.88
2022-09-26T10:03:47.926Z,99319.13
2022-09-26T10:06:46.579Z,99338.22
2022-09-26T10:09:35.898Z,99340.81
2022-09-26T10:12:29.374Z,99241.00
2022-09-26T10:15:20.437Z,99310.44
2022-09-26T10:18:25.778Z,99321.75
2022-09-26T10:21:16.393Z,99317.38
2022-09-26T10:23:47.285Z,99169.88
2022-09-26T10:26:39.732Z,99336.44
2022-09-26T10:29:33.954Z,99344.28
2022-09-26T10:32:02.408Z,99304.28
2022-09-26T10:34:32.909Z,99316.44
2022-09-26T10:37:24.333Z,99339.91
2022-09-26T10:40:17.607Z,99347.75
2022-09-26T10:42:47.298Z,99344.25
2022-09-26T10:45:18.193Z,99247.88
2022-09-26T10:48:06.262Z,99355.50
2022-09-26T10:51:18.793Z,99359.81
2022-09-26T10:54:06.007Z,99357.16
2022-09-26T10:56:39.289Z,99364.97
2022-09-26T10:59:10.129Z,99268.63
2022-09-26T11:01:43.367Z,99375.38
2022-09-26T11:04:15.532Z,99372.78
2022-09-26T11:07:05.738Z,99343.25
2022-09-26T11:09:47.075Z,99246.06
2022-09-26T11:12:57.814Z,99354.56
2022-09-26T11:15:25.372Z,99282.50
2022-09-26T11:17:53.792Z,99340.66
2022-09-26T11:20:37.146Z,99311.13
2022-09-26T11:23:13.077Z,99351.09
2022-09-26T11:26:43.248Z,99375.44
2022-09-26T11:29:22.066Z,99313.81
2022-09-26T11:32:24.021Z,99238.31
2022-09-26T11:34:54.591Z,99365.94
2022-09-26T11:37:39.394Z,99376.38
2022-09-26T11:40:28.150Z,99370.31
2022-09-26T11:43:08.789Z,99375.50
2022-09-26T11:45:55.933Z,99374.69
2022-09-26T11:48:44.252Z,99387.69
2022-09-26T11:51:59.153Z,99290.50
2022-09-26T11:55:01.106Z,99382.50
2022-09-26T11:58:03.572Z,99386.81
2022-09-26T12:00:55.984Z,99321.75
2022-09-26T12:04:00.714Z,99397.25
2022-09-26T12:06:56.177Z,99359.06
2022-09-26T12:09:39.335Z,99402.44
2022-09-26T12:12:15.353Z,99411.13
2022-09-26T12:14:52.840Z,99410.25
2022-09-26T12:17:41.072Z,99403.31
2022-09-26T12:20:17.011Z,99355.53
2022-09-26T12:22:49.886Z,99414.59
2022-09-26T12:25:41.699Z,99418.06
2022-09-26T12:28:33.684Z,99421.53
2022-09-26T12:31:19.663Z,99416.34
2022-09-26T12:34:18.897Z,99331.25
2022-09-26T12:37:09.430Z,99311.31
2022-09-26T12:40:06.812Z,99410.25
2022-09-26T12:42:42.589Z,99399.84
2022-09-26T12:45:28.428Z,99346.00
2022-09-26T12:47:55.674Z,99408.53
2022-09-26T12:50:41.321Z,99311.31
2022-09-26T12:53:14.146Z,99404.19
2022-09-26T12:56:24.073Z,99412.84
2022-09-26T12:59:12.887Z,99408.50
2022-09-26T13:01:50.297Z,99416.34
2022-09-26T13:04:26.431Z,99416.31
2022-09-26T13:07:18.885Z,99402.41
2022-09-26T13:10:29.019Z,99396.38
2022-09-26T13:13:30.275Z,99349.50
2022-09-26T13:16:28.225Z,99422.41
2022-09-26T13:19:00.505Z,99397.19
2022-09-26T13:21:45.094Z,99416.28
2022-09-26T13:24:19.749Z,99373.75
2022-09-26T13:27:27.042Z,99331.22
2022-09-26T13:30:23.560Z,99432.78
2022-09-26T13:32:57.495Z,99289.47
2022-09-26T13:35:27.929Z,99431.03
2022-09-26T13:38:20.252Z,99442.31
2022-09-26T13:40:58.949Z,99409.31
2022-09-26T13:43:31.072Z,99449.25
2022-09-26T13:46:06.642Z,99450.13
2022-09-26T13:48:50.212Z,99377.09
2022-09-26T13:51:30.816Z,99451.88
2022-09-26T13:54:17.014Z,99452.72
2022-09-26T13:56:49.787Z,99450.06
2022-09-26T13:59:18.280Z,99298.88
2022-09-26T14:02:16.544Z,99473.50
2022-09-26T14:04:45.603Z,99479.53
2022-09-26T14:07:31.038Z,99478.66
2022-09-26T14:10:01.872Z,99355.19
2022-09-26T14:13:08.462Z,99473.34
2022-09-26T14:15:48.411Z,99389.00
2022-09-26T14:18:27.299Z,99392.44
2022-09-26T14:21:19.515Z,99486.25
2022-09-26T14:23:49.538Z,99396.75
2022-09-26T14:26:28.189Z,99471.50
2022-09-26T14:28:57.370Z,99385.38
2022-09-26T14:31:24.265Z,99358.41
2022-09-26T14:34:17.473Z,99476.56
2022-09-26T14:36:46.633Z,99408.75
2022-09-26T14:39:38.737Z,99362.63
2022-09-26T14:42:17.114Z,99473.81
2022-09-26T14:45:06.115Z,99481.56
2022-09-26T14:47:50.519Z,99478.91
2022-09-26T14:50:20.798Z,99465.75
2022-09-26T14:52:58.063Z,99425.69
2022-09-26T14:55:27.137Z,99383.97
2022-09-26T14:58:37.377Z,99465.75
2022-09-26T15:01:46.089Z,99477.84
2022-09-26T15:04:24.074Z,99492.66
2022-09-26T15:07:01.746Z,99425.53
2022-09-26T15:09:43.691Z,99492.53
2022-09-26T15:12:23.095Z,99485.53
2022-09-26T15:15:09.819Z,99507.19
2022-09-26T15:17:40.990Z,99501.13
2022-09-26T15:20:13.502Z,99510.63
2022-09-26T15:22:42.686Z,99497.59
2022-09-26T15:25:19.692Z,99484.53
2022-09-26T15:27:48.985Z,99514.19
2022-09-26T15:30:24.646Z,99514.88
2022-09-26T15:32:57.535Z,99474.81
2022-09-26T15:35:26.986Z,99524.34
2022-09-26T15:38:00.206Z,99466.00
2022-09-26T15:40:30.343Z,99531.28
2022-09-26T15:43:09.978Z,99542.50
2022-09-26T15:45:50.224Z,99552.88
2022-09-26T15:48:20.121Z,99545.03
2022-09-26T15:50:53.672Z,99504.16
2022-09-26T15:53:31.967Z,99502.41
2022-09-26T15:56:10.241Z,99548.50
2022-09-26T15:59:01.092Z,99549.38
2022-09-26T16:01:30.794Z,99539.69
2022-09-26T16:04:13.498Z,99556.19
2022-09-26T16:06:52.788Z,99523.09
2022-09-26T16:09:43.673Z,99490.91
2022-09-26T16:12:22.437Z,99542.25
2022-09-26T16:14:52.537Z,99530.94
2022-09-26T16:17:28.099Z,99559.72
2022-09-26T16:20:02.861Z,99533.63
2022-09-26T16:22:36.950Z,99463.09
2022-09-26T16:25:19.597Z,99565.03
2022-09-26T16:27:59.809Z,99556.28
2022-09-26T16:30:33.747Z,99568.41
2022-09-26T16:33:03.890Z,99562.41
2022-09-26T16:35:33.624Z,99534.50
2022-09-26T16:38:23.194Z,99554.56
2022-09-26T16:40:52.540Z,99556.38
2022-09-26T16:43:30.035Z,99550.34
2022-09-26T16:46:09.310Z,99559.88
2022-09-26T16:48:41.322Z,99560.75
2022-09-26T16:51:17.541Z,99557.22
2022-09-26T16:54:00.658Z,99523.19
2022-09-26T16:56:28.654Z,99535.28
2022-09-26T16:58:59.435Z,99479.50
2022-09-26T17:01:46.452Z,99556.03
2022-09-26T17:04:21.593Z,99558.72
2022-09-26T17:06:48.849Z,99550.84
2022-09-26T17:09:18.564Z,99562.16
2022-09-26T17:11:48.438Z,99567.28
2022-09-26T17:14:22.156Z,99529.81
2022-09-26T17:16:55.461Z,99546.34
2022-09-26T17:19:24.481Z,99454.97
2022-09-26T17:21:53.080Z,99545.56
2022-09-26T17:24:26.320Z,99570.09
2022-09-26T17:27:05.846Z,99469.91
2022-09-26T17:29:36.603Z,99501.13
2022-09-26T17:32:09.634Z,99555.94
2022-09-26T17:34:37.754Z,99575.06
2022-09-26T17:37:05.351Z,99576.84
2022-09-26T17:39:32.539Z,99544.59
2022-09-26T17:42:00.233Z,99584.66
2022-09-26T17:44:29.767Z,99580.34
2022-09-26T17:46:57.791Z,99587.25
2022-09-26T17:49:35.311Z,99568.00
2022-09-26T17:52:05.297Z,99589.84
2022-09-26T17:54:40.778Z,99473.09
2022-09-26T17:57:14.630Z,99600.22
2022-09-26T17:59:42.955Z,99562.69
2022-09-26T18:02:29.317Z,99595.03
2022-09-26T18:04:59.377Z,99493.09
2022-09-26T18:07:36.216Z,99586.22
2022-09-26T18:10:08.339Z,99605.22
2022-09-26T18:12:35.627Z,99603.50
2022-09-26T18:15:04.771Z,99579.06
2022-09-26T18:17:32.395Z,99592.06
2022-09-26T18:19:59.691Z,99593.78
2022-09-26T18:22:33.189Z,99585.84
2022-09-26T18:25:08.598Z,99557.78
2022-09-26T18:27:41.880Z,99558.63
2022-09-26T18:30:14.079Z,99582.91
2022-09-26T18:32:44.291Z,99562.00
2022-09-26T18:35:17.103Z,99601.97
2022-09-26T18:37:44.809Z,99591.44
2022-09-26T18:40:17.086Z,99567.91
2022-09-26T18:42:45.787Z,99484.19
2022-09-26T18:45:33.298Z,99609.81
2022-09-26T18:48:02.452Z,99606.28
2022-09-26T18:50:37.190Z,99577.53
2022-09-26T18:53:15.763Z,99584.56
2022-09-26T18:56:01.644Z,99602.81
2022-09-26T18:58:29.769Z,99613.25
2022-09-26T19:01:01.759Z,99611.44
2022-09-26T19:03:35.038Z,99608.78
2022-09-26T19:06:41.040Z,99574.00
2022-09-26T19:09:15.070Z,99480.72
2022-09-26T19:11:42.679Z,99586.16
2022-09-26T19:14:24.709Z,99616.72
2022-09-26T19:16:52.885Z,99576.66
2022-09-26T19:19:20.773Z,99612.44
2022-09-26T19:21:47.816Z,99613.28
2022-09-26T19:24:21.305Z,99597.38
2022-09-26T19:27:04.731Z,99585.41
2022-09-26T19:29:45.984Z,99623.66
2022-09-26T19:32:21.176Z,99434.69
2022-09-26T19:35:01.149Z,99609.81
2022-09-26T19:37:28.396Z,99516.41
2022-09-26T19:39:57.881Z,99573.91
2022-09-26T19:42:26.428Z,99620.97
2022-09-26T19:44:53.518Z,99610.56
2022-09-26T19:47:23.736Z,99588.69
2022-09-26T19:49:53.001Z,99620.97
2022-09-26T19:52:20.920Z,99556.50
2022-09-26T19:54:48.864Z,99599.34
2022-09-26T19:57:21.112Z,99618.47
2022-09-26T19:59:49.839Z,99620.16
2022-09-26T20:02:22.834Z,99505.25
2022-09-26T20:04:51.248Z,99618.47
2022-09-26T20:07:19.705Z,99506.00
2022-09-26T20:09:47.322Z,99613.09
2022-09-26T20:12:14.948Z,99536.31
2022-09-26T20:14:41.965Z,99588.75
2022-09-26T20:17:21.194Z,99609.63
2022-09-26T20:19:48.781Z,99622.66
2022-09-26T20:22:19.506Z,99626.09
2022-09-26T20:24:49.433Z,99629.44
2022-09-26T20:27:26.599Z,99523.84
2022-09-26T20:30:12.682Z,99602.28
2022-09-26T20:32:42.638Z,99636.38
2022-09-26T20:35:16.021Z,99617.22
2022-09-26T20:37:44.037Z,99628.50
2022-09-26T20:40:21.344Z,99448.03
2022-09-26T20:42:51.798Z,99540.50
2022-09-26T20:45:25.580Z,99542.13
2022-09-26T20:47:52.623Z,99584.84
2022-09-26T20:50:20.883Z,99653.56
2022-09-26T20:52:48.280Z,99607.31
2022-09-26T20:55:18.260Z,99564.47
2022-09-26T20:57:46.162Z,99647.28
2022-09-26T21:00:19.486Z,99648.19
2022-09-26T21:02:51.476Z,99448.41
2022-09-26T21:05:22.934Z,99643.72
2022-09-26T21:07:50.916Z,99653.16
2022-09-26T21:10:29.025Z,99608.44
2022-09-26T21:12:57.027Z,99667.84
2022-09-26T21:15:25.998Z,99657.25
2022-09-26T21:17:54.345Z,99674.53
2022-09-26T21:20:26.273Z,99646.44
2022-09-26T21:23:20.551Z,99586.22
2022-09-26T21:25:47.653Z,99669.03
2022-09-26T21:28:26.761Z,99623.75
2022-09-26T21:31:06.321Z,99675.44
2022-09-26T21:33:33.641Z,99664.91
2022-09-26T21:36:01.024Z,99682.34
2022-09-26T21:38:28.208Z,99575.25
2022-09-26T21:40:59.795Z,99680.81
2022-09-26T21:43:35.519Z,99681.78
2022-09-26T21:46:02.962Z,99635.53
2022-09-26T21:48:30.150Z,99673.09
2022-09-26T21:50:58.620Z,99652.13
2022-09-26T21:53:57.760Z,99679.34
2022-09-26T21:56:29.972Z,99685.25
2022-09-26T21:58:57.709Z,99681.69
2022-09-26T22:01:25.173Z,99680.75
2022-09-26T22:03:53.547Z,99641.50
2022-09-26T22:06:20.693Z,99613.47
2022-09-26T22:08:47.788Z,99682.19
2022-09-26T22:11:15.022Z,99686.41
2022-09-26T22:13:42.168Z,99607.91
2022-09-26T22:16:13.311Z,99679.56
2022-09-26T22:18:41.581Z,99669.81
2022-09-26T22:21:10.359Z,99586.53
2022-09-26T22:23:38.285Z,99683.50
2022-09-26T22:26:06.213Z,99683.53
2022-09-26T22:28:33.580Z,99694.84
2022-09-26T22:31:05.290Z,99705.22
2022-09-26T22:33:33.382Z,99682.56
2022-09-26T22:36:01.154Z,99694.75
2022-09-26T22:38:28.331Z,99572.47
2022-09-26T22:41:04.172Z,99656.22
2022-09-26T22:43:32.835Z,99678.78
2022-09-26T22:46:11.253Z,99602.06
2022-09-26T22:48:41.442Z,99684.13
2022-09-26T22:51:10.482Z,99674.47
2022-09-26T22:53:39.320Z,99684.97
2022-09-26T22:56:09.194Z,99691.25
2022-09-26T22:58:44.414Z,99652.91
2022-09-26T23:01:14.334Z,99684.38
2022-09-26T23:03:41.862Z,99682.63
2022-09-26T23:06:09.427Z,99687.75
2022-09-26T23:08:37.160Z,99672.94
2022-09-26T23:11:05.698Z,99673.06
2022-09-26T23:13:35.659Z,99642.59
2022-09-26T23:16:05.604Z,99644.41
2022-09-26T23:18:34.812Z,99661.91
2022-09-26T23:21:18.056Z,99603.50
2022-09-26T23:23:47.289Z,99657.66
2022-09-26T23:26:24.408Z,99682.81
2022-09-26T23:28:52.913Z,99685.28
2022-09-26T23:31:21.174Z,99681.66
2022-09-26T23:33:48.415Z,99684.25
2022-09-26T23:36:15.905Z,99686.81
2022-09-26T23:38:43.210Z,99674.53
2022-09-26T23:41:11.937Z,99635.84
2022-09-26T23:43:39.614Z,99671.06
2022-09-26T23:46:07.587Z,99650.22
2022-09-26T23:48:35.414Z,99685.81
2022-09-26T23:51:02.804Z,99596.50
2022-09-26T23:53:30.379Z,99634.88
2022-09-26T23:56:06.168Z,99673.22
2022-09-26T23:58:33.494Z,99670.59
